sensor_id;sensor_type;location;lat;lon;timestamp;P1;durP1;ratioP1;P2;durP2;ratioP2
77432;SDS011;66752;48.576;8.876;2023-07-24T00:01:32;11.23;;;5.13;;
77432;SDS011;66752;48.576;8.876;2023-07-24T00:03:58;13.43;;;5.30;;
77432;SDS011;66752;48.576;8.876;2023-07-24T00:06:24;9.98;;;5.35;;
77432;SDS011;66752;48.576;8.876;2023-07-24T00:08:50;11.18;;;5.50;;
77432;SDS011;66752;48.576;8.876;2023-07-24T00:11:16;10.00;;;4.88;;
77432;SDS011;66752;48.576;8.876;2023-07-24T00:13:42;15.43;;;6.22;;
77432;SDS011;66752;48.576;8.876;2023-07-24T00:16:08;9.27;;;4.55;;
77432;SDS011;66752;48.576;8.876;2023-07-24T00:18:34;10.40;;;5.32;;
77432;SDS011;66752;48.576;8.876;2023-07-24T00:21:00;10.75;;;5.07;;
77432;SDS011;66752;48.576;8.876;2023-07-24T00:23:26;11.27;;;5.65;;
77432;SDS011;66752;48.576;8.876;2023-07-24T00:25:52;10.75;;;4.70;;
77432;SDS011;66752;48.576;8.876;2023-07-24T00:30:45;12.50;;;5.82;;
77432;SDS011;66752;48.576;8.876;2023-07-24T00:33:11;11.70;;;6.25;;
77432;SDS011;66752;48.576;8.876;2023-07-24T00:35:37;9.60;;;5.07;;
77432;SDS011;66752;48.576;8.876;2023-07-24T00:38:03;10.73;;;5.20;;
77432;SDS011;66752;48.576;8.876;2023-07-24T00:40:28;9.48;;;5.05;;
77432;SDS011;66752;48.576;8.876;2023-07-24T00:42:54;9.63;;;4.90;;
77432;SDS011;66752;48.576;8.876;2023-07-24T00:45:22;10.25;;;4.90;;
77432;SDS011;66752;48.576;8.876;2023-07-24T00:47:48;10.82;;;5.32;;
77432;SDS011;66752;48.576;8.876;2023-07-24T00:50:14;10.32;;;5.50;;
77432;SDS011;66752;48.576;8.876;2023-07-24T00:52:40;11.85;;;5.68;;
77432;SDS011;66752;48.576;8.876;2023-07-24T00:55:07;10.70;;;5.65;;
77432;SDS011;66752;48.576;8.876;2023-07-24T00:57:33;12.25;;;5.70;;
77432;SDS011;66752;48.576;8.876;2023-07-24T00:59:59;10.38;;;4.45;;
77432;SDS011;66752;48.576;8.876;2023-07-24T01:02:25;10.38;;;5.07;;
77432;SDS011;66752;48.576;8.876;2023-07-24T01:04:51;11.82;;;5.75;;
77432;SDS011;66752;48.576;8.876;2023-07-24T01:07:17;11.77;;;5.55;;
77432;SDS011;66752;48.576;8.876;2023-07-24T01:09:43;11.40;;;5.60;;
77432;SDS011;66752;48.576;8.876;2023-07-24T01:12:19;10.80;;;5.40;;
77432;SDS011;66752;48.576;8.876;2023-07-24T01:14:46;10.75;;;5.32;;
77432;SDS011;66752;48.576;8.876;2023-07-24T01:17:14;15.32;;;6.50;;
77432;SDS011;66752;48.576;8.876;2023-07-24T01:19:43;10.63;;;5.78;;
77432;SDS011;66752;48.576;8.876;2023-07-24T01:22:12;9.40;;;4.97;;
77432;SDS011;66752;48.576;8.876;2023-07-24T01:27:28;10.65;;;5.28;;
77432;SDS011;66752;48.576;8.876;2023-07-24T01:29:54;12.10;;;6.05;;
77432;SDS011;66752;48.576;8.876;2023-07-24T01:32:20;13.43;;;6.32;;
77432;SDS011;66752;48.576;8.876;2023-07-24T01:34:47;12.07;;;5.47;;
77432;SDS011;66752;48.576;8.876;2023-07-24T01:39:42;11.65;;;5.40;;
77432;SDS011;66752;48.576;8.876;2023-07-24T01:42:09;10.50;;;5.85;;
77432;SDS011;66752;48.576;8.876;2023-07-24T01:44:35;10.88;;;5.25;;
77432;SDS011;66752;48.576;8.876;2023-07-24T01:47:01;11.93;;;5.50;;
77432;SDS011;66752;48.576;8.876;2023-07-24T01:49:27;12.05;;;5.18;;
77432;SDS011;66752;48.576;8.876;2023-07-24T01:51:53;11.13;;;5.32;;
77432;SDS011;66752;48.576;8.876;2023-07-24T01:54:19;11.05;;;5.47;;
77432;SDS011;66752;48.576;8.876;2023-07-24T01:56:45;11.00;;;5.88;;
77432;SDS011;66752;48.576;8.876;2023-07-24T01:59:11;11.18;;;5.72;;
77432;SDS011;66752;48.576;8.876;2023-07-24T02:01:37;11.20;;;6.35;;
77432;SDS011;66752;48.576;8.876;2023-07-24T02:04:03;13.90;;;5.95;;
77432;SDS011;66752;48.576;8.876;2023-07-24T02:06:29;11.57;;;5.85;;
77432;SDS011;66752;48.576;8.876;2023-07-24T02:08:55;13.05;;;6.50;;
77432;SDS011;66752;48.576;8.876;2023-07-24T02:11:21;10.25;;;5.65;;
77432;SDS011;66752;48.576;8.876;2023-07-24T02:13:47;11.77;;;5.38;;
77432;SDS011;66752;48.576;8.876;2023-07-24T02:16:13;12.23;;;6.25;;
77432;SDS011;66752;48.576;8.876;2023-07-24T02:18:40;11.60;;;5.70;;
77432;SDS011;66752;48.576;8.876;2023-07-24T02:21:06;12.27;;;5.32;;
77432;SDS011;66752;48.576;8.876;2023-07-24T02:23:32;12.75;;;5.80;;
77432;SDS011;66752;48.576;8.876;2023-07-24T02:25:59;11.30;;;5.63;;
77432;SDS011;66752;48.576;8.876;2023-07-24T02:28:25;11.88;;;5.75;;
77432;SDS011;66752;48.576;8.876;2023-07-24T02:30:51;13.05;;;5.85;;
77432;SDS011;66752;48.576;8.876;2023-07-24T02:33:21;11.98;;;6.38;;
77432;SDS011;66752;48.576;8.876;2023-07-24T02:35:47;11.82;;;5.53;;
77432;SDS011;66752;48.576;8.876;2023-07-24T02:38:13;11.57;;;5.53;;
77432;SDS011;66752;48.576;8.876;2023-07-24T02:40:40;9.65;;;5.10;;
77432;SDS011;66752;48.576;8.876;2023-07-24T02:43:06;11.82;;;5.38;;
77432;SDS011;66752;48.576;8.876;2023-07-24T02:45:35;10.75;;;5.32;;
77432;SDS011;66752;48.576;8.876;2023-07-24T02:48:01;10.52;;;5.32;;
77432;SDS011;66752;48.576;8.876;2023-07-24T02:50:27;12.05;;;5.40;;
77432;SDS011;66752;48.576;8.876;2023-07-24T02:52:53;11.70;;;6.00;;
77432;SDS011;66752;48.576;8.876;2023-07-24T02:55:19;11.82;;;6.00;;
77432;SDS011;66752;48.576;8.876;2023-07-24T02:57:45;12.60;;;5.55;;
77432;SDS011;66752;48.576;8.876;2023-07-24T03:00:11;14.27;;;6.65;;
77432;SDS011;66752;48.576;8.876;2023-07-24T03:02:38;11.73;;;5.90;;
77432;SDS011;66752;48.576;8.876;2023-07-24T03:05:04;11.07;;;5.57;;
77432;SDS011;66752;48.576;8.876;2023-07-24T03:09:56;12.27;;;6.00;;
77432;SDS011;66752;48.576;8.876;2023-07-24T03:12:22;12.48;;;5.45;;
77432;SDS011;66752;48.576;8.876;2023-07-24T03:14:48;12.38;;;5.93;;
77432;SDS011;66752;48.576;8.876;2023-07-24T03:17:14;11.27;;;6.00;;
77432;SDS011;66752;48.576;8.876;2023-07-24T03:19:40;11.43;;;5.95;;
77432;SDS011;66752;48.576;8.876;2023-07-24T03:22:06;11.57;;;5.82;;
77432;SDS011;66752;48.576;8.876;2023-07-24T03:24:33;11.55;;;5.75;;
77432;SDS011;66752;48.576;8.876;2023-07-24T03:26:59;11.23;;;5.13;;
77432;SDS011;66752;48.576;8.876;2023-07-24T03:29:25;12.07;;;5.93;;
77432;SDS011;66752;48.576;8.876;2023-07-24T03:31:51;12.50;;;5.57;;
77432;SDS011;66752;48.576;8.876;2023-07-24T03:34:18;12.15;;;6.15;;
77432;SDS011;66752;48.576;8.876;2023-07-24T03:36:44;13.82;;;5.55;;
77432;SDS011;66752;48.576;8.876;2023-07-24T03:39:10;12.27;;;5.22;;
77432;SDS011;66752;48.576;8.876;2023-07-24T03:41:36;13.40;;;6.00;;
77432;SDS011;66752;48.576;8.876;2023-07-24T03:44:02;12.20;;;5.70;;
77432;SDS011;66752;48.576;8.876;2023-07-24T03:46:28;10.10;;;5.18;;
77432;SDS011;66752;48.576;8.876;2023-07-24T03:48:54;12.05;;;5.13;;
77432;SDS011;66752;48.576;8.876;2023-07-24T03:51:20;10.07;;;5.25;;
77432;SDS011;66752;48.576;8.876;2023-07-24T03:53:46;10.75;;;5.32;;
77432;SDS011;66752;48.576;8.876;2023-07-24T03:56:12;13.50;;;5.97;;
77432;SDS011;66752;48.576;8.876;2023-07-24T03:58:38;13.40;;;5.40;;
77432;SDS011;66752;48.576;8.876;2023-07-24T04:01:04;11.00;;;5.72;;
77432;SDS011;66752;48.576;8.876;2023-07-24T04:03:30;12.23;;;6.45;;
77432;SDS011;66752;48.576;8.876;2023-07-24T04:05:56;11.00;;;5.57;;
77432;SDS011;66752;48.576;8.876;2023-07-24T04:08:22;12.82;;;5.70;;
77432;SDS011;66752;48.576;8.876;2023-07-24T04:10:48;11.02;;;5.63;;
77432;SDS011;66752;48.576;8.876;2023-07-24T04:13:14;11.30;;;5.68;;
77432;SDS011;66752;48.576;8.876;2023-07-24T04:15:40;11.52;;;5.68;;
77432;SDS011;66752;48.576;8.876;2023-07-24T04:18:06;11.77;;;5.75;;
77432;SDS011;66752;48.576;8.876;2023-07-24T04:20:32;13.98;;;5.95;;
77432;SDS011;66752;48.576;8.876;2023-07-24T04:22:58;13.57;;;6.10;;
77432;SDS011;66752;48.576;8.876;2023-07-24T04:25:24;10.48;;;5.50;;
77432;SDS011;66752;48.576;8.876;2023-07-24T04:27:50;11.82;;;6.00;;
77432;SDS011;66752;48.576;8.876;2023-07-24T04:30:16;13.27;;;5.70;;
77432;SDS011;66752;48.576;8.876;2023-07-24T04:32:42;10.38;;;5.07;;
77432;SDS011;66752;48.576;8.876;2023-07-24T04:35:08;11.25;;;5.60;;
77432;SDS011;66752;48.576;8.876;2023-07-24T04:37:34;12.38;;;5.60;;
77432;SDS011;66752;48.576;8.876;2023-07-24T04:40:00;12.73;;;6.15;;
77432;SDS011;66752;48.576;8.876;2023-07-24T04:42:26;12.32;;;5.60;;
77432;SDS011;66752;48.576;8.876;2023-07-24T04:44:52;12.23;;;6.18;;
77432;SDS011;66752;48.576;8.876;2023-07-24T04:47:18;11.48;;;5.75;;
77432;SDS011;66752;48.576;8.876;2023-07-24T04:49:44;13.55;;;5.70;;
77432;SDS011;66752;48.576;8.876;2023-07-24T04:52:10;12.02;;;6.43;;
77432;SDS011;66752;48.576;8.876;2023-07-24T04:54:36;11.90;;;6.50;;
77432;SDS011;66752;48.576;8.876;2023-07-24T04:57:02;10.73;;;5.40;;
77432;SDS011;66752;48.576;8.876;2023-07-24T04:59:28;13.07;;;6.07;;
77432;SDS011;66752;48.576;8.876;2023-07-24T05:01:54;13.63;;;6.45;;
77432;SDS011;66752;48.576;8.876;2023-07-24T05:04:21;12.65;;;6.28;;
77432;SDS011;66752;48.576;8.876;2023-07-24T05:06:46;12.40;;;6.03;;
77432;SDS011;66752;48.576;8.876;2023-07-24T05:09:12;11.30;;;5.55;;
77432;SDS011;66752;48.576;8.876;2023-07-24T05:11:39;11.48;;;5.88;;
77432;SDS011;66752;48.576;8.876;2023-07-24T05:14:07;12.30;;;5.78;;
77432;SDS011;66752;48.576;8.876;2023-07-24T05:16:33;11.70;;;5.75;;
77432;SDS011;66752;48.576;8.876;2023-07-24T05:18:59;13.15;;;6.38;;
77432;SDS011;66752;48.576;8.876;2023-07-24T05:21:25;11.02;;;6.28;;
77432;SDS011;66752;48.576;8.876;2023-07-24T05:23:51;13.13;;;5.72;;
77432;SDS011;66752;48.576;8.876;2023-07-24T05:26:17;11.40;;;5.75;;
77432;SDS011;66752;48.576;8.876;2023-07-24T05:28:43;12.05;;;5.75;;
77432;SDS011;66752;48.576;8.876;2023-07-24T05:31:09;13.27;;;6.05;;
77432;SDS011;66752;48.576;8.876;2023-07-24T05:33:35;11.18;;;5.85;;
77432;SDS011;66752;48.576;8.876;2023-07-24T05:36:02;12.15;;;5.63;;
77432;SDS011;66752;48.576;8.876;2023-07-24T05:38:28;17.35;;;8.05;;
77432;SDS011;66752;48.576;8.876;2023-07-24T05:43:20;14.45;;;6.10;;
77432;SDS011;66752;48.576;8.876;2023-07-24T05:45:46;15.27;;;6.90;;
77432;SDS011;66752;48.576;8.876;2023-07-24T05:48:12;15.50;;;7.20;;
77432;SDS011;66752;48.576;8.876;2023-07-24T05:50:38;13.02;;;6.45;;
77432;SDS011;66752;48.576;8.876;2023-07-24T05:53:06;13.02;;;5.63;;
77432;SDS011;66752;48.576;8.876;2023-07-24T05:55:32;10.32;;;5.97;;
77432;SDS011;66752;48.576;8.876;2023-07-24T05:57:58;14.70;;;6.13;;
77432;SDS011;66752;48.576;8.876;2023-07-24T06:00:24;15.95;;;7.65;;
77432;SDS011;66752;48.576;8.876;2023-07-24T06:02:50;13.95;;;6.80;;
77432;SDS011;66752;48.576;8.876;2023-07-24T06:05:16;13.60;;;6.35;;
77432;SDS011;66752;48.576;8.876;2023-07-24T06:07:42;12.05;;;5.68;;
77432;SDS011;66752;48.576;8.876;2023-07-24T06:10:08;13.25;;;6.25;;
77432;SDS011;66752;48.576;8.876;2023-07-24T06:12:34;14.63;;;6.15;;
77432;SDS011;66752;48.576;8.876;2023-07-24T06:15:00;14.52;;;6.43;;
77432;SDS011;66752;48.576;8.876;2023-07-24T06:17:26;18.77;;;7.60;;
77432;SDS011;66752;48.576;8.876;2023-07-24T06:19:52;15.40;;;6.30;;
77432;SDS011;66752;48.576;8.876;2023-07-24T06:22:18;12.63;;;6.03;;
77432;SDS011;66752;48.576;8.876;2023-07-24T06:24:44;13.07;;;6.22;;
77432;SDS011;66752;48.576;8.876;2023-07-24T06:27:10;14.95;;;7.22;;
77432;SDS011;66752;48.576;8.876;2023-07-24T06:29:39;13.05;;;6.55;;
77432;SDS011;66752;48.576;8.876;2023-07-24T06:32:12;14.10;;;6.20;;
77432;SDS011;66752;48.576;8.876;2023-07-24T06:34:38;12.55;;;6.45;;
77432;SDS011;66752;48.576;8.876;2023-07-24T06:37:04;15.07;;;6.68;;
77432;SDS011;66752;48.576;8.876;2023-07-24T06:39:30;13.93;;;7.32;;
77432;SDS011;66752;48.576;8.876;2023-07-24T06:41:58;14.48;;;6.28;;
77432;SDS011;66752;48.576;8.876;2023-07-24T06:44:27;12.55;;;5.90;;
77432;SDS011;66752;48.576;8.876;2023-07-24T06:46:53;16.98;;;6.85;;
77432;SDS011;66752;48.576;8.876;2023-07-24T06:49:19;11.95;;;6.88;;
77432;SDS011;66752;48.576;8.876;2023-07-24T06:51:45;12.23;;;6.20;;
77432;SDS011;66752;48.576;8.876;2023-07-24T06:54:11;12.35;;;6.70;;
77432;SDS011;66752;48.576;8.876;2023-07-24T06:56:37;12.63;;;6.72;;
77432;SDS011;66752;48.576;8.876;2023-07-24T06:59:03;15.13;;;6.70;;
77432;SDS011;66752;48.576;8.876;2023-07-24T07:01:29;12.32;;;5.88;;
77432;SDS011;66752;48.576;8.876;2023-07-24T07:03:55;13.95;;;6.57;;
77432;SDS011;66752;48.576;8.876;2023-07-24T07:06:21;12.18;;;6.80;;
77432;SDS011;66752;48.576;8.876;2023-07-24T07:08:47;13.38;;;6.78;;
77432;SDS011;66752;48.576;8.876;2023-07-24T07:11:15;15.18;;;7.25;;
77432;SDS011;66752;48.576;8.876;2023-07-24T07:13:41;13.60;;;6.88;;
77432;SDS011;66752;48.576;8.876;2023-07-24T07:16:07;13.23;;;6.85;;
77432;SDS011;66752;48.576;8.876;2023-07-24T07:18:33;13.27;;;6.55;;
77432;SDS011;66752;48.576;8.876;2023-07-24T07:20:59;12.10;;;6.72;;
77432;SDS011;66752;48.576;8.876;2023-07-24T07:23:25;13.05;;;6.93;;
77432;SDS011;66752;48.576;8.876;2023-07-24T07:25:51;12.73;;;6.43;;
77432;SDS011;66752;48.576;8.876;2023-07-24T07:28:17;13.63;;;6.40;;
77432;SDS011;66752;48.576;8.876;2023-07-24T07:30:44;14.63;;;7.05;;
77432;SDS011;66752;48.576;8.876;2023-07-24T07:33:10;12.88;;;6.07;;
77432;SDS011;66752;48.576;8.876;2023-07-24T07:35:36;11.98;;;5.70;;
77432;SDS011;66752;48.576;8.876;2023-07-24T07:38:02;11.45;;;6.18;;
77432;SDS011;66752;48.576;8.876;2023-07-24T07:40:29;10.75;;;5.95;;
77432;SDS011;66752;48.576;8.876;2023-07-24T07:42:56;13.30;;;6.18;;
77432;SDS011;66752;48.576;8.876;2023-07-24T07:45:23;13.68;;;6.25;;
77432;SDS011;66752;48.576;8.876;2023-07-24T07:47:49;13.35;;;6.03;;
77432;SDS011;66752;48.576;8.876;2023-07-24T07:50:15;12.82;;;5.97;;
77432;SDS011;66752;48.576;8.876;2023-07-24T07:52:41;11.48;;;6.22;;
77432;SDS011;66752;48.576;8.876;2023-07-24T07:55:07;13.02;;;6.43;;
77432;SDS011;66752;48.576;8.876;2023-07-24T07:57:37;12.02;;;6.05;;
77432;SDS011;66752;48.576;8.876;2023-07-24T08:00:03;12.63;;;5.78;;
77432;SDS011;66752;48.576;8.876;2023-07-24T08:02:31;9.10;;;4.03;;
77432;SDS011;66752;48.576;8.876;2023-07-24T08:04:57;9.77;;;4.20;;
77432;SDS011;66752;48.576;8.876;2023-07-24T08:07:23;8.18;;;3.95;;
77432;SDS011;66752;48.576;8.876;2023-07-24T08:09:49;9.60;;;4.47;;
77432;SDS011;66752;48.576;8.876;2023-07-24T08:12:15;7.32;;;3.72;;
77432;SDS011;66752;48.576;8.876;2023-07-24T08:17:07;9.38;;;4.35;;
77432;SDS011;66752;48.576;8.876;2023-07-24T08:19:33;7.43;;;3.70;;
77432;SDS011;66752;48.576;8.876;2023-07-24T08:22:02;8.75;;;3.97;;
77432;SDS011;66752;48.576;8.876;2023-07-24T08:24:30;7.70;;;4.03;;
77432;SDS011;66752;48.576;8.876;2023-07-24T08:26:56;21.45;;;5.07;;
77432;SDS011;66752;48.576;8.876;2023-07-24T08:29:22;10.77;;;4.65;;
77432;SDS011;66752;48.576;8.876;2023-07-24T08:31:48;9.25;;;4.15;;
77432;SDS011;66752;48.576;8.876;2023-07-24T08:34:14;8.63;;;4.25;;
77432;SDS011;66752;48.576;8.876;2023-07-24T08:36:40;9.18;;;4.40;;
77432;SDS011;66752;48.576;8.876;2023-07-24T08:39:06;8.52;;;3.58;;
77432;SDS011;66752;48.576;8.876;2023-07-24T08:41:32;8.68;;;3.65;;
77432;SDS011;66752;48.576;8.876;2023-07-24T08:43:59;7.90;;;3.92;;
77432;SDS011;66752;48.576;8.876;2023-07-24T08:46:25;8.73;;;4.20;;
77432;SDS011;66752;48.576;8.876;2023-07-24T08:48:52;9.32;;;4.00;;
77432;SDS011;66752;48.576;8.876;2023-07-24T08:51:20;11.70;;;4.35;;
77432;SDS011;66752;48.576;8.876;2023-07-24T08:53:49;8.25;;;3.83;;
77432;SDS011;66752;48.576;8.876;2023-07-24T08:56:15;8.75;;;3.72;;
77432;SDS011;66752;48.576;8.876;2023-07-24T08:58:41;9.52;;;3.83;;
77432;SDS011;66752;48.576;8.876;2023-07-24T09:01:08;8.88;;;4.30;;
77432;SDS011;66752;48.576;8.876;2023-07-24T09:03:34;9.25;;;4.03;;
77432;SDS011;66752;48.576;8.876;2023-07-24T09:06:00;7.75;;;3.83;;
77432;SDS011;66752;48.576;8.876;2023-07-24T09:10:52;10.13;;;4.45;;
77432;SDS011;66752;48.576;8.876;2023-07-24T09:13:19;11.05;;;5.13;;
77432;SDS011;66752;48.576;8.876;2023-07-24T09:15:45;9.75;;;5.15;;
77432;SDS011;66752;48.576;8.876;2023-07-24T09:18:12;9.85;;;4.38;;
77432;SDS011;66752;48.576;8.876;2023-07-24T09:20:41;10.68;;;5.18;;
77432;SDS011;66752;48.576;8.876;2023-07-24T09:23:07;12.00;;;5.97;;
77432;SDS011;66752;48.576;8.876;2023-07-24T09:25:34;13.73;;;5.50;;
77432;SDS011;66752;48.576;8.876;2023-07-24T09:28:01;9.85;;;4.65;;
77432;SDS011;66752;48.576;8.876;2023-07-24T09:30:27;10.43;;;5.10;;
77432;SDS011;66752;48.576;8.876;2023-07-24T09:32:53;8.35;;;4.25;;
77432;SDS011;66752;48.576;8.876;2023-07-24T09:35:19;9.02;;;4.78;;
77432;SDS011;66752;48.576;8.876;2023-07-24T09:37:47;7.85;;;4.47;;
77432;SDS011;66752;48.576;8.876;2023-07-24T09:40:14;10.40;;;4.75;;
77432;SDS011;66752;48.576;8.876;2023-07-24T09:42:40;9.00;;;4.72;;
77432;SDS011;66752;48.576;8.876;2023-07-24T09:45:06;8.88;;;5.03;;
77432;SDS011;66752;48.576;8.876;2023-07-24T09:47:33;9.25;;;5.03;;
77432;SDS011;66752;48.576;8.876;2023-07-24T09:50:00;10.80;;;4.80;;
77432;SDS011;66752;48.576;8.876;2023-07-24T09:52:28;11.75;;;5.03;;
77432;SDS011;66752;48.576;8.876;2023-07-24T09:57:30;10.85;;;4.88;;
77432;SDS011;66752;48.576;8.876;2023-07-24T09:59:56;9.80;;;4.65;;
77432;SDS011;66752;48.576;8.876;2023-07-24T10:02:23;11.45;;;5.38;;
77432;SDS011;66752;48.576;8.876;2023-07-24T10:04:49;9.75;;;5.00;;
77432;SDS011;66752;48.576;8.876;2023-07-24T10:07:16;10.18;;;4.60;;
77432;SDS011;66752;48.576;8.876;2023-07-24T10:09:46;11.50;;;5.90;;
77432;SDS011;66752;48.576;8.876;2023-07-24T10:12:12;13.23;;;5.22;;
77432;SDS011;66752;48.576;8.876;2023-07-24T10:14:40;8.73;;;4.38;;
77432;SDS011;66752;48.576;8.876;2023-07-24T10:19:35;9.50;;;5.50;;
77432;SDS011;66752;48.576;8.876;2023-07-24T10:22:03;11.88;;;4.97;;
77432;SDS011;66752;48.576;8.876;2023-07-24T10:24:29;10.10;;;4.90;;
77432;SDS011;66752;48.576;8.876;2023-07-24T10:26:56;9.45;;;5.55;;
77432;SDS011;66752;48.576;8.876;2023-07-24T10:29:25;11.13;;;4.85;;
77432;SDS011;66752;48.576;8.876;2023-07-24T10:31:54;13.73;;;5.78;;
77432;SDS011;66752;48.576;8.876;2023-07-24T10:34:20;9.98;;;4.78;;
77432;SDS011;66752;48.576;8.876;2023-07-24T10:36:46;11.02;;;5.38;;
77432;SDS011;66752;48.576;8.876;2023-07-24T10:39:13;10.98;;;5.38;;
77432;SDS011;66752;48.576;8.876;2023-07-24T10:41:39;12.05;;;5.75;;
77432;SDS011;66752;48.576;8.876;2023-07-24T10:44:05;10.02;;;5.53;;
77432;SDS011;66752;48.576;8.876;2023-07-24T10:46:35;10.82;;;5.68;;
77432;SDS011;66752;48.576;8.876;2023-07-24T10:49:02;11.07;;;5.10;;
77432;SDS011;66752;48.576;8.876;2023-07-24T10:51:31;12.80;;;5.80;;
77432;SDS011;66752;48.576;8.876;2023-07-24T10:53:59;11.13;;;5.40;;
77432;SDS011;66752;48.576;8.876;2023-07-24T10:56:25;10.68;;;5.05;;
77432;SDS011;66752;48.576;8.876;2023-07-24T10:58:51;10.65;;;5.35;;
77432;SDS011;66752;48.576;8.876;2023-07-24T11:01:17;9.95;;;5.43;;
77432;SDS011;66752;48.576;8.876;2023-07-24T11:03:43;10.40;;;5.82;;
77432;SDS011;66752;48.576;8.876;2023-07-24T11:06:14;10.50;;;5.03;;
77432;SDS011;66752;48.576;8.876;2023-07-24T11:08:40;9.40;;;5.20;;
77432;SDS011;66752;48.576;8.876;2023-07-24T11:11:07;11.73;;;5.28;;
77432;SDS011;66752;48.576;8.876;2023-07-24T11:13:33;11.35;;;4.97;;
77432;SDS011;66752;48.576;8.876;2023-07-24T11:16:05;10.73;;;5.03;;
77432;SDS011;66752;48.576;8.876;2023-07-24T11:18:31;9.18;;;4.65;;
77432;SDS011;66752;48.576;8.876;2023-07-24T11:20:57;12.52;;;5.47;;
77432;SDS011;66752;48.576;8.876;2023-07-24T11:23:23;9.45;;;5.13;;
77432;SDS011;66752;48.576;8.876;2023-07-24T11:25:50;11.93;;;6.15;;
77432;SDS011;66752;48.576;8.876;2023-07-24T11:28:16;10.73;;;5.40;;
77432;SDS011;66752;48.576;8.876;2023-07-24T11:30:42;14.55;;;6.13;;
77432;SDS011;66752;48.576;8.876;2023-07-24T11:33:09;11.85;;;5.65;;
77432;SDS011;66752;48.576;8.876;2023-07-24T11:35:36;10.45;;;5.30;;
77432;SDS011;66752;48.576;8.876;2023-07-24T11:38:04;9.95;;;5.25;;
77432;SDS011;66752;48.576;8.876;2023-07-24T11:40:38;10.73;;;5.78;;
77432;SDS011;66752;48.576;8.876;2023-07-24T11:43:04;11.05;;;5.57;;
77432;SDS011;66752;48.576;8.876;2023-07-24T11:45:31;12.75;;;5.75;;
77432;SDS011;66752;48.576;8.876;2023-07-24T11:47:57;11.30;;;5.43;;
77432;SDS011;66752;48.576;8.876;2023-07-24T11:50:23;10.13;;;5.43;;
77432;SDS011;66752;48.576;8.876;2023-07-24T11:52:52;9.07;;;4.93;;
77432;SDS011;66752;48.576;8.876;2023-07-24T11:55:19;10.35;;;5.43;;
77432;SDS011;66752;48.576;8.876;2023-07-24T11:57:58;11.75;;;6.35;;
77432;SDS011;66752;48.576;8.876;2023-07-24T12:00:24;9.73;;;5.20;;
77432;SDS011;66752;48.576;8.876;2023-07-24T12:02:51;10.27;;;5.30;;
77432;SDS011;66752;48.576;8.876;2023-07-24T12:05:17;14.23;;;6.40;;
77432;SDS011;66752;48.576;8.876;2023-07-24T12:07:43;11.13;;;5.35;;
77432;SDS011;66752;48.576;8.876;2023-07-24T12:10:13;8.70;;;4.72;;
77432;SDS011;66752;48.576;8.876;2023-07-24T12:15:05;9.35;;;4.88;;
77432;SDS011;66752;48.576;8.876;2023-07-24T12:17:31;10.07;;;4.88;;
77432;SDS011;66752;48.576;8.876;2023-07-24T12:19:57;10.75;;;4.28;;
77432;SDS011;66752;48.576;8.876;2023-07-24T12:22:23;8.68;;;4.55;;
77432;SDS011;66752;48.576;8.876;2023-07-24T12:24:49;8.63;;;4.35;;
77432;SDS011;66752;48.576;8.876;2023-07-24T12:27:15;8.50;;;4.78;;
77432;SDS011;66752;48.576;8.876;2023-07-24T12:29:41;8.25;;;3.97;;
77432;SDS011;66752;48.576;8.876;2023-07-24T12:32:07;7.95;;;4.35;;
77432;SDS011;66752;48.576;8.876;2023-07-24T12:34:33;8.52;;;4.40;;
77432;SDS011;66752;48.576;8.876;2023-07-24T12:36:59;10.13;;;4.53;;
77432;SDS011;66752;48.576;8.876;2023-07-24T12:39:25;7.80;;;4.22;;
77432;SDS011;66752;48.576;8.876;2023-07-24T12:41:51;7.63;;;3.95;;
77432;SDS011;66752;48.576;8.876;2023-07-24T12:44:17;8.63;;;5.20;;
77432;SDS011;66752;48.576;8.876;2023-07-24T12:46:43;7.63;;;3.72;;
77432;SDS011;66752;48.576;8.876;2023-07-24T12:49:09;6.75;;;4.03;;
77432;SDS011;66752;48.576;8.876;2023-07-24T12:51:35;7.55;;;3.60;;
77432;SDS011;66752;48.576;8.876;2023-07-24T12:54:01;7.38;;;4.03;;
77432;SDS011;66752;48.576;8.876;2023-07-24T12:56:27;6.97;;;4.38;;
77432;SDS011;66752;48.576;8.876;2023-07-24T12:58:53;8.95;;;4.05;;
77432;SDS011;66752;48.576;8.876;2023-07-24T13:03:45;7.15;;;3.35;;
77432;SDS011;66752;48.576;8.876;2023-07-24T13:06:11;7.45;;;3.78;;
77432;SDS011;66752;48.576;8.876;2023-07-24T13:08:37;7.63;;;3.53;;
77432;SDS011;66752;48.576;8.876;2023-07-24T13:11:03;7.38;;;3.35;;
77432;SDS011;66752;48.576;8.876;2023-07-24T13:13:29;6.65;;;3.20;;
77432;SDS011;66752;48.576;8.876;2023-07-24T13:15:55;7.43;;;3.90;;
77432;SDS011;66752;48.576;8.876;2023-07-24T13:18:21;6.82;;;3.30;;
77432;SDS011;66752;48.576;8.876;2023-07-24T13:20:47;9.07;;;3.30;;
77432;SDS011;66752;48.576;8.876;2023-07-24T13:23:13;7.75;;;3.50;;
77432;SDS011;66752;48.576;8.876;2023-07-24T13:25:39;7.70;;;3.35;;
77432;SDS011;66752;48.576;8.876;2023-07-24T13:28:05;7.18;;;3.47;;
77432;SDS011;66752;48.576;8.876;2023-07-24T13:30:31;6.82;;;3.50;;
77432;SDS011;66752;48.576;8.876;2023-07-24T13:32:57;7.38;;;3.83;;
77432;SDS011;66752;48.576;8.876;2023-07-24T13:35:23;12.20;;;4.22;;
77432;SDS011;66752;48.576;8.876;2023-07-24T13:37:49;8.15;;;3.83;;
77432;SDS011;66752;48.576;8.876;2023-07-24T13:40:15;7.70;;;3.85;;
77432;SDS011;66752;48.576;8.876;2023-07-24T13:42:41;6.47;;;3.10;;
77432;SDS011;66752;48.576;8.876;2023-07-24T13:45:07;7.22;;;3.60;;
77432;SDS011;66752;48.576;8.876;2023-07-24T13:49:59;7.18;;;3.00;;
77432;SDS011;66752;48.576;8.876;2023-07-24T13:52:28;7.65;;;3.13;;
77432;SDS011;66752;48.576;8.876;2023-07-24T13:57:20;8.02;;;3.15;;
77432;SDS011;66752;48.576;8.876;2023-07-24T13:59:46;6.13;;;3.05;;
77432;SDS011;66752;48.576;8.876;2023-07-24T14:02:12;7.25;;;3.17;;
77432;SDS011;66752;48.576;8.876;2023-07-24T14:04:38;6.07;;;3.03;;
77432;SDS011;66752;48.576;8.876;2023-07-24T14:07:04;7.50;;;3.35;;
77432;SDS011;66752;48.576;8.876;2023-07-24T14:09:30;6.68;;;3.30;;
77432;SDS011;66752;48.576;8.876;2023-07-24T14:11:57;12.85;;;3.70;;
77432;SDS011;66752;48.576;8.876;2023-07-24T14:14:23;7.22;;;3.58;;
77432;SDS011;66752;48.576;8.876;2023-07-24T14:16:50;7.82;;;3.45;;
77432;SDS011;66752;48.576;8.876;2023-07-24T14:19:16;8.30;;;4.00;;
77432;SDS011;66752;48.576;8.876;2023-07-24T14:21:42;7.38;;;3.60;;
77432;SDS011;66752;48.576;8.876;2023-07-24T14:24:08;5.53;;;2.75;;
77432;SDS011;66752;48.576;8.876;2023-07-24T14:26:34;7.40;;;3.63;;
77432;SDS011;66752;48.576;8.876;2023-07-24T14:29:02;6.32;;;3.45;;
77432;SDS011;66752;48.576;8.876;2023-07-24T14:31:28;6.53;;;2.95;;
77432;SDS011;66752;48.576;8.876;2023-07-24T14:33:54;6.43;;;3.00;;
77432;SDS011;66752;48.576;8.876;2023-07-24T14:36:20;6.30;;;3.08;;
77432;SDS011;66752;48.576;8.876;2023-07-24T14:38:46;6.20;;;2.70;;
77432;SDS011;66752;48.576;8.876;2023-07-24T14:43:40;6.05;;;2.75;;
77432;SDS011;66752;48.576;8.876;2023-07-24T14:46:06;7.82;;;3.28;;
77432;SDS011;66752;48.576;8.876;2023-07-24T14:48:32;7.85;;;3.28;;
77432;SDS011;66752;48.576;8.876;2023-07-24T14:50:58;7.28;;;3.30;;
77432;SDS011;66752;48.576;8.876;2023-07-24T14:53:24;6.97;;;3.42;;
77432;SDS011;66752;48.576;8.876;2023-07-24T14:55:50;7.78;;;3.20;;
77432;SDS011;66752;48.576;8.876;2023-07-24T14:58:16;6.97;;;3.20;;
77432;SDS011;66752;48.576;8.876;2023-07-24T15:00:42;6.63;;;3.17;;
77432;SDS011;66752;48.576;8.876;2023-07-24T15:03:08;5.60;;;2.75;;
77432;SDS011;66752;48.576;8.876;2023-07-24T15:05:34;7.13;;;3.15;;
77432;SDS011;66752;48.576;8.876;2023-07-24T15:08:00;7.35;;;3.17;;